Time;durP1;ratioP1;P1;durP2;ratioP2;P2;SDS_P1;SDS_P2;PMS_P1;PMS_P2;Temp;Humidity;BMP_temperature;BMP_pressure;BME280_temperature;BME280_humidity;BME280_pressure;Samples;Min_cycle;Max_cycle;Signal;HPM_P1;HPM_P2
2021/03/17 00:01:29;;;;;;;4.20;1.27;;;;;;;0.03;95.15;101404.44;5093818;28;20977;-65
2021/03/17 00:03:54;;;;;;;0.47;0.40;;;;;;;0.14;94.35;101400.31;5093631;28;20487;-65
2021/03/17 00:06:20;;;;;;;0.40;0.37;;;;;;;0.16;93.51;101407.06;5093663;28;20888;-66
2021/03/17 00:08:47;;;;;;;1.80;1.20;;;;;;;0.18;93.23;101409.53;5093337;28;20489;-65
2021/03/17 00:11:13;;;;;;;0.60;0.50;;;;;;;0.18;93.10;101402.34;5093499;28;20459;-65
2021/03/17 00:13:39;;;;;;;0.80;0.80;;;;;;;0.22;93.43;101405.38;5093471;28;20421;-65
2021/03/17 00:16:06;;;;;;;0.40;0.40;;;;;;;0.28;93.76;101406.41;5093252;28;20985;-65
2021/03/17 00:18:32;;;;;;;0.70;0.60;;;;;;;0.06;93.12;101404.03;5093668;28;20841;-65
2021/03/17 00:20:58;;;;;;;1.47;1.37;;;;;;;0.04;94.17;101403.41;5093724;28;20433;-64
2021/03/17 00:23:24;;;;;;;0.70;0.70;;;;;;;0.14;94.27;101403.81;5093465;28;20992;-66
2021/03/17 00:25:51;;;;;;;0.40;0.40;;;;;;;0.06;93.86;101393.38;5093410;28;21008;-65
2021/03/17 00:28:17;;;;;;;1.93;1.03;;;;;;;0.01;93.01;101405.69;5093633;28;20440;-65
2021/03/17 00:30:43;;;;;;;0.50;0.50;;;;;;;0.14;93.39;101405.66;5093318;28;20445;-65
2021/03/17 00:33:10;;;;;;;0.60;0.60;;;;;;;0.13;92.92;101410.13;5093375;28;21002;-65
2021/03/17 00:35:37;;;;;;;0.60;0.50;;;;;;;0.10;93.29;101401.78;5093320;28;20461;-64
2021/03/17 00:38:03;;;;;;;0.73;0.73;;;;;;;0.07;92.73;101404.84;5093333;28;20444;-65
2021/03/17 00:40:30;;;;;;;0.50;0.40;;;;;;;0.07;92.46;101405.66;5093251;28;20438;-66
2021/03/17 00:42:56;;;;;;;1.00;0.53;;;;;;;0.13;92.05;101404.81;5093229;28;20483;-65
2021/03/17 00:45:23;;;;;;;0.97;0.87;;;;;;;0.08;93.23;101406.47;5093145;28;20468;-65
2021/03/17 00:47:48;;;;;;;0.40;0.30;;;;;;;0.14;93.87;101409.13;5093196;28;20440;-65
2021/03/17 00:50:17;;;;;;;1.23;1.03;;;;;;;0.08;94.36;101404.63;5093240;28;20823;-64
2021/03/17 00:52:43;;;;;;;1.60;0.77;;;;;;;0.15;94.20;101402.75;5093171;28;20436;-65
2021/03/17 00:55:11;;;;;;;0.60;0.50;;;;;;;0.31;92.99;101405.97;5094241;28;20460;-64
2021/03/17 00:57:37;;;;;;;0.70;0.67;;;;;;;0.38;92.82;101402.25;5097260;28;20511;-64
2021/03/17 01:00:07;;;;;;;1.43;1.33;;;;;;;0.34;93.23;101390.38;5097284;28;20440;-65
2021/03/17 01:02:33;;;;;;;2.00;1.90;;;;;;;0.18;93.65;101397.03;5097433;28;20442;-65
2021/03/17 01:04:59;;;;;;;1.70;1.20;;;;;;;0.11;95.33;101401.56;5097065;28;20521;-64
2021/03/17 01:07:25;;;;;;;0.97;0.80;;;;;;;0.28;94.39;101404.56;5097080;28;20849;-66
2021/03/17 01:09:51;;;;;;;3.57;3.03;;;;;;;0.36;94.24;101409.63;5097121;28;20444;-64
2021/03/17 01:12:17;;;;;;;0.77;0.77;;;;;;;0.33;95.02;101406.59;5096736;28;20488;-66
2021/03/17 01:14:45;;;;;;;3.27;1.73;;;;;;;0.40;94.25;101412.66;5096824;28;20538;-64
2021/03/17 01:17:12;;;;;;;1.10;0.60;;;;;;;0.25;95.73;101408.44;5096959;28;20530;-64
2021/03/17 01:19:38;;;;;;;0.50;0.50;;;;;;;0.16;96.23;101409.72;5096882;28;20448;-65
2021/03/17 01:22:05;;;;;;;0.40;0.40;;;;;;;0.12;96.75;101416.50;5096855;28;20444;-65
2021/03/17 01:24:31;;;;;;;0.47;0.43;;;;;;;0.30;96.27;101407.00;5096575;28;20484;-64
2021/03/17 01:26:58;;;;;;;0.40;0.30;;;;;;;0.24;96.56;101406.00;5096724;28;20440;-64
2021/03/17 01:29:24;;;;;;;0.40;0.30;;;;;;;0.31;96.00;101405.97;5096635;28;20469;-66
2021/03/17 01:31:50;;;;;;;0.40;0.40;;;;;;;0.33;95.51;101414.56;5096640;28;20474;-65
2021/03/17 01:34:17;;;;;;;1.87;1.20;;;;;;;0.27;94.24;101413.59;5096554;28;20457;-65
2021/03/17 01:36:43;;;;;;;1.20;1.10;;;;;;;0.17;95.14;101403.34;5096485;28;20447;-65
2021/03/17 01:39:09;;;;;;;1.17;1.17;;;;;;;0.19;95.90;101403.97;5096245;28;20443;-66
2021/03/17 01:41:35;;;;;;;1.33;0.80;;;;;;;0.07;95.49;101405.66;5096380;28;20440;-65
2021/03/17 01:44:03;;;;;;;1.23;1.13;;;;;;;0.18;94.80;101405.00;5096284;28;20483;-65
2021/03/17 01:46:29;;;;;;;3.47;1.30;;;;;;;0.08;94.06;101411.81;5096328;28;20509;-65
2021/03/17 01:48:56;;;;;;;0.70;0.50;;;;;;;-0.02;94.38;101412.25;5096331;28;20440;-66
2021/03/17 01:51:22;;;;;;;0.80;0.63;;;;;;;0.05;94.27;101409.59;5095959;28;20440;-66
2021/03/17 01:53:48;;;;;;;0.40;0.30;;;;;;;-0.07;94.64;101412.06;5095810;28;20926;-66
2021/03/17 01:56:16;;;;;;;0.40;0.30;;;;;;;-0.05;94.84;101407.34;5096274;28;20455;-66
2021/03/17 01:58:42;;;;;;;0.80;0.70;;;;;;;-0.15;95.77;101412.28;5096068;28;20448;-65
2021/03/17 02:01:08;;;;;;;1.27;0.90;;;;;;;-0.14;96.16;101403.28;5096030;28;20448;-65
2021/03/17 02:03:34;;;;;;;0.80;0.80;;;;;;;-0.07;96.37;101404.91;5095948;28;20848;-66
2021/03/17 02:06:00;;;;;;;0.50;0.40;;;;;;;-0.17;95.91;101403.72;5095300;28;20981;-66
2021/03/17 02:08:32;;;;;;;7.83;2.17;;;;;;;-0.17;95.51;101399.22;5095384;28;20455;-65
2021/03/17 02:10:58;;;;;;;1.53;1.07;;;;;;;-0.11;95.05;101408.19;5095892;28;20432;-65
2021/03/17 02:13:37;;;;;;;0.50;0.40;;;;;;;-0.05;94.33;101410.00;5095705;28;20459;-67
2021/03/17 02:16:10;;;;;;;1.30;1.23;;;;;;;-0.05;93.74;101410.00;5095780;28;20460;-66
2021/03/17 02:18:47;;;;;;;0.80;0.80;;;;;;;-0.09;93.10;101406.13;5095792;28;20424;-65
2021/03/17 02:21:52;;;;;;;1.00;1.00;;;;;;;-0.11;93.12;101408.19;5095486;28;20910;-66
2021/03/17 02:24:23;;;;;;;0.40;0.30;;;;;;;-0.13;92.96;101412.91;5077730;28;20487;-65
2021/03/17 02:27:19;;;;;;;0.70;0.60;;;;;;;-0.20;94.56;101418.25;5095663;28;20425;-65
2021/03/17 02:30:22;;;;;;;0.40;0.30;;;;;;;-0.20;95.13;101423.56;5090393;28;20949;-66
2021/03/17 02:33:17;;;;;;;0.50;0.50;;;;;;;-0.14;95.39;101422.72;5095479;28;20443;-66
2021/03/17 02:35:47;;;;;;;1.07;0.63;;;;;;;-0.06;94.71;101416.34;5076341;28;20490;-65
2021/03/17 02:38:15;;;;;;;2.00;1.90;;;;;;;-0.10;94.95;101421.28;5095421;28;20424;-65
2021/03/17 02:40:43;;;;;;;2.30;1.50;;;;;;;-0.08;95.40;101426.41;5095345;28;20460;-66
2021/03/17 02:43:11;;;;;;;1.00;1.00;;;;;;;0.06;94.95;101427.19;5095464;28;20476;-66
2021/03/17 02:45:41;;;;;;;7.40;0.60;;;;;;;0.01;95.07;101414.50;5095191;28;20466;-66
2021/03/17 02:48:11;;;;;;;1.67;1.57;;;;;;;0.00;95.64;101415.53;5095387;28;20448;-65
2021/03/17 02:50:42;;;;;;;1.90;0.70;;;;;;;0.05;95.80;101407.72;5095250;28;20444;-66
2021/03/17 02:53:10;;;;;;;1.17;0.80;;;;;;;0.08;95.72;101409.94;5095360;28;20490;-66
2021/03/17 02:55:40;;;;;;;0.50;0.50;;;;;;;0.15;95.81;101417.94;5095004;28;20457;-66
2021/03/17 02:58:07;;;;;;;1.50;0.97;;;;;;;0.21;95.64;101412.56;5094744;28;20940;-65
2021/03/17 03:00:34;;;;;;;0.70;0.53;;;;;;;0.12;96.39;101413.84;5094937;28;20444;-66
2021/03/17 03:03:01;;;;;;;1.53;1.43;;;;;;;0.05;97.13;101413.06;5094903;28;20480;-65
2021/03/17 03:05:28;;;;;;;1.43;1.33;;;;;;;0.02;97.14;101418.78;5094746;28;20463;-66
2021/03/17 03:07:57;;;;;;;2.30;0.60;;;;;;;0.19;96.11;101419.16;5094519;28;20960;-65
2021/03/17 03:10:28;;;;;;;1.43;0.73;;;;;;;0.20;95.61;101416.25;5094351;28;20452;-65
2021/03/17 03:12:55;;;;;;;0.90;0.90;;;;;;;0.19;96.33;101421.81;5094364;28;20452;-65
2021/03/17 03:15:24;;;;;;;0.40;0.30;;;;;;;0.30;97.24;101417.66;5094333;28;20484;-66
2021/03/17 03:17:51;;;;;;;0.40;0.30;;;;;;;0.35;97.10;101418.66;5093854;28;20825;-64
2021/03/17 03:20:21;;;;;;;0.90;0.90;;;;;;;0.41;97.22;101422.31;5094537;28;20463;-66
2021/03/17 03:22:48;;;;;;;1.93;1.17;;;;;;;0.43;97.82;101423.72;5094431;28;20420;-66
2021/03/17 03:25:16;;;;;;;0.53;0.53;;;;;;;0.53;98.08;101420.59;5094428;28;20464;-66
2021/03/17 03:27:43;;;;;;;0.73;0.73;;;;;;;0.64;98.98;101427.94;5094136;28;20942;-64
2021/03/17 03:30:14;;;;;;;0.83;0.53;;;;;;;0.66;99.33;101423.19;5094346;28;20440;-65
2021/03/17 03:32:41;;;;;;;0.50;0.40;;;;;;;0.75;99.08;101423.75;5094078;28;20953;-65
2021/03/17 03:35:10;;;;;;;1.80;1.33;;;;;;;0.73;98.98;101423.97;5093919;28;21008;-65
2021/03/17 03:37:37;;;;;;;0.67;0.67;;;;;;;0.64;99.54;101422.59;5094199;28;20448;-64
2021/03/17 03:40:07;;;;;;;0.57;0.57;;;;;;;0.71;99.83;101428.72;5094162;28;20455;-66
2021/03/17 03:42:34;;;;;;;0.40;0.30;;;;;;;0.65;99.50;101424.22;5094137;28;20440;-66
2021/03/17 03:45:00;;;;;;;0.40;0.40;;;;;;;0.64;99.90;101432.44;5094002;28;20484;-66
2021/03/17 03:47:26;;;;;;;3.60;1.17;;;;;;;0.67;99.34;101437.34;5094066;28;20451;-66
2021/03/17 03:49:52;;;;;;;0.40;0.30;;;;;;;0.54;98.81;101435.59;5094026;28;20448;-66
2021/03/17 03:52:28;;;;;;;0.50;0.50;;;;;;;0.56;99.00;101438.84;5093998;28;20436;-66
2021/03/17 03:55:01;;;;;;;0.40;0.40;;;;;;;0.61;99.46;101439.00;5093903;28;20459;-65
2021/03/17 03:57:31;;;;;;;0.57;0.57;;;;;;;0.70;98.57;101445.72;5093628;28;20433;-65
2021/03/17 04:00:06;;;;;;;2.10;0.90;;;;;;;0.72;98.39;101446.34;5093881;28;20448;-65
2021/03/17 04:02:36;;;;;;;0.40;0.30;;;;;;;0.67;99.05;101450.69;5093872;28;20424;-66
2021/03/17 04:05:03;;;;;;;0.80;0.40;;;;;;;0.74;99.00;101448.78;5093730;28;20491;-65
2021/03/17 04:07:30;;;;;;;0.40;0.30;;;;;;;0.80;98.98;101442.59;5093781;28;20433;-66
2021/03/17 04:10:01;;;;;;;0.80;0.73;;;;;;;0.85;98.91;101449.97;5093825;28;20445;-66
2021/03/17 04:12:29;;;;;;;0.70;0.50;;;;;;;0.87;99.38;101445.22;5093372;28;20455;-65
2021/03/17 04:14:59;;;;;;;0.50;0.40;;;;;;;0.82;98.77;101450.38;5092865;28;21043;-66
2021/03/17 04:17:27;;;;;;;0.50;0.50;;;;;;;0.79;99.36;101450.81;5093559;28;20444;-65
2021/03/17 04:19:59;;;;;;;0.40;0.33;;;;;;;0.82;99.71;101447.72;5093559;28;20444;-66
2021/03/17 04:22:26;;;;;;;0.60;0.60;;;;;;;0.89;99.86;101448.50;5093554;28;20424;-66
2021/03/17 04:24:54;;;;;;;0.50;0.43;;;;;;;0.95;99.81;101456.44;5093345;28;20487;-65
2021/03/17 04:27:21;;;;;;;0.60;0.60;;;;;;;0.94;99.83;101464.69;5093445;28;20436;-66
2021/03/17 04:29:51;;;;;;;0.70;0.70;;;;;;;0.97;100.00;101448.22;5093122;28;20447;-65
2021/03/17 04:32:19;;;;;;;3.23;1.20;;;;;;;1.00;99.78;101450.47;5093422;28;20440;-65
2021/03/17 04:34:46;;;;;;;0.50;0.30;;;;;;;1.00;100.00;101451.28;5093014;28;20483;-65
2021/03/17 04:37:12;;;;;;;0.90;0.63;;;;;;;1.01;99.56;101455.56;5093331;28;20444;-66
2021/03/17 04:39:40;;;;;;;0.60;0.60;;;;;;;0.99;99.67;101451.50;5094693;28;20444;-65
2021/03/17 04:42:07;;;;;;;0.70;0.50;;;;;;;1.00;99.88;101458.47;5093292;28;20444;-65
2021/03/17 04:44:33;;;;;;;0.50;0.40;;;;;;;1.07;99.93;101461.91;5093182;28;20488;-65
2021/03/17 04:47:01;;;;;;;1.67;0.60;;;;;;;1.12;99.93;101458.59;5093297;28;20452;-65
2021/03/17 04:49:29;;;;;;;1.23;0.80;;;;;;;1.11;99.44;101465.78;5093268;28;20429;-65
2021/03/17 04:51:56;;;;;;;0.40;0.30;;;;;;;1.03;99.62;101463.38;5093176;28;20436;-65
2021/03/17 04:54:22;;;;;;;0.60;0.43;;;;;;;1.08;99.34;101471.53;5093139;28;20460;-65
2021/03/17 04:56:48;;;;;;;0.40;0.33;;;;;;;1.07;99.59;101469.91;5093189;28;20493;-65
2021/03/17 04:59:18;;;;;;;0.40;0.40;;;;;;;1.09;99.83;101478.50;5092853;28;20794;-65
2021/03/17 05:01:45;;;;;;;0.40;0.40;;;;;;;1.15;99.82;101474.16;5093503;28;20440;-66
2021/03/17 05:04:12;;;;;;;0.40;0.30;;;;;;;1.18;99.46;101487.88;5093238;28;20484;-66
2021/03/17 05:06:41;;;;;;;0.40;0.30;;;;;;;1.18;99.61;101481.72;5093411;28;20436;-66
2021/03/17 05:09:10;;;;;;;0.40;0.30;;;;;;;1.17;99.80;101480.91;5093209;28;20467;-65
2021/03/17 05:11:37;;;;;;;0.60;0.53;;;;;;;1.14;99.54;101485.88;5092584;28;20460;-66
2021/03/17 05:14:05;;;;;;;0.40;0.37;;;;;;;1.14;99.56;101493.88;5072811;28;20438;-66
2021/03/17 05:16:32;;;;;;;0.40;0.30;;;;;;;1.21;99.95;101491.97;5072811;28;20559;-65
2021/03/17 05:19:00;;;;;;;0.73;0.73;;;;;;;1.24;99.92;101483.56;5072887;28;20445;-65
2021/03/17 05:21:26;;;;;;;0.40;0.30;;;;;;;1.21;100.00;101487.47;5072780;28;20441;-65
2021/03/17 05:23:53;;;;;;;0.40;0.30;;;;;;;1.27;100.00;101488.44;5072573;28;20508;-66
2021/03/17 05:26:21;;;;;;;0.40;0.30;;;;;;;1.27;100.00;101494.59;5072424;28;20962;-65
2021/03/17 05:28:48;;;;;;;0.40;0.30;;;;;;;1.29;99.97;101496.25;5089291;28;20486;-66
2021/03/17 05:31:18;;;;;;;0.57;0.43;;;;;;;1.27;100.00;101502.59;5092514;28;20973;-65
2021/03/17 05:33:45;;;;;;;0.40;0.30;;;;;;;1.31;100.00;101496.84;5092804;28;20437;-65
2021/03/17 05:36:12;;;;;;;0.40;0.30;;;;;;;1.35;99.99;101498.84;5092864;28;20428;-64
2021/03/17 05:38:38;;;;;;;0.40;0.30;;;;;;;1.42;100.00;101502.28;5092829;28;20437;-66
2021/03/17 05:41:05;;;;;;;0.40;0.30;;;;;;;1.43;100.00;101505.78;5093693;28;20448;-68
2021/03/17 05:43:34;;;;;;;0.70;0.50;;;;;;;1.46;99.95;101508.84;5096386;28;20506;-67
2021/03/17 05:46:03;;;;;;;0.40;0.30;;;;;;;1.45;100.00;101509.03;5096342;28;20451;-67
2021/03/17 05:48:32;;;;;;;0.40;0.30;;;;;;;1.48;100.00;101513.94;5096383;28;20440;-66
2021/03/17 05:50:58;;;;;;;0.40;0.30;;;;;;;1.45;100.00;101514.38;5096326;28;20443;-68
2021/03/17 05:53:25;;;;;;;0.40;0.30;;;;;;;1.46;100.00;101511.50;5096281;28;20440;-69
2021/03/17 05:55:51;;;;;;;0.40;0.30;;;;;;;1.53;100.00;101514.09;5096184;28;20529;-68
2021/03/17 05:58:20;;;;;;;0.40;0.30;;;;;;;1.56;100.00;101532.38;5096179;28;20444;-69
2021/03/17 06:00:46;;;;;;;0.40;0.30;;;;;;;1.57;100.00;101523.31;5095868;28;20467;-67
2021/03/17 06:03:13;;;;;;;0.40;0.30;;;;;;;1.63;100.00;101524.28;5095740;28;20839;-67
2021/03/17 06:05:40;;;;;;;0.50;0.30;;;;;;;1.66;100.00;101530.00;5095997;28;20460;-67
2021/03/17 06:08:07;;;;;;;0.50;0.50;;;;;;;1.69;99.67;101521.56;5095619;28;20462;-66
2021/03/17 06:10:35;;;;;;;0.67;0.67;;;;;;;1.64;99.79;101532.09;5095840;28;20467;-66
2021/03/17 06:13:06;;;;;;;1.77;0.57;;;;;;;1.76;99.86;101526.84;5095452;28;20455;-67
2021/03/17 06:15:34;;;;;;;0.40;0.30;;;;;;;1.85;99.68;101530.06;5095765;28;20453;-67
2021/03/17 06:18:06;;;;;;;0.60;0.50;;;;;;;1.90;99.60;101532.88;5095744;28;20447;-66
2021/03/17 06:20:32;;;;;;;0.67;0.40;;;;;;;1.88;99.83;101534.97;5095685;28;20425;-67
2021/03/17 06:23:01;;;;;;;0.70;0.70;;;;;;;1.89;99.69;101537.41;5095259;28;20440;-67
2021/03/17 06:25:27;;;;;;;0.40;0.30;;;;;;;2.00;99.67;101541.22;5095492;28;20514;-67
2021/03/17 06:27:53;;;;;;;0.40;0.30;;;;;;;2.01;99.95;101543.69;5095584;28;20440;-66
2021/03/17 06:30:21;;;;;;;2.23;0.90;;;;;;;2.13;99.81;101546.44;5095499;28;20440;-66
2021/03/17 06:32:47;;;;;;;0.40;0.30;;;;;;;2.05;99.77;101543.25;5095446;28;20448;-67
2021/03/17 06:35:19;;;;;;;1.03;0.43;;;;;;;2.03;100.00;101548.78;5095108;28;20848;-67
2021/03/17 06:37:45;;;;;;;0.40;0.30;;;;;;;2.03;100.00;101546.13;5095488;28;20493;-67
2021/03/17 06:40:26;;;;;;;1.47;1.27;;;;;;;2.25;100.00;101560.69;5095154;28;20961;-67
2021/03/17 06:42:54;;;;;;;1.60;1.50;;;;;;;2.17;99.94;101553.00;5095066;28;20913;-66
2021/03/17 06:45:32;;;;;;;1.40;0.87;;;;;;;2.26;99.76;101554.34;5095132;28;20494;-67
2021/03/17 06:48:17;;;;;;;1.47;0.73;;;;;;;2.31;99.65;101555.53;5095327;28;20500;-67
2021/03/17 06:50:43;;;;;;;1.70;0.77;;;;;;;2.28;99.76;101560.25;5095243;28;20584;-68
2021/03/17 06:53:09;;;;;;;0.50;0.40;;;;;;;2.31;99.81;101563.53;5094218;28;20472;-68
2021/03/17 06:55:35;;;;;;;0.50;0.40;;;;;;;2.32;99.48;101563.31;5094659;28;21000;-68
2021/03/17 06:58:02;;;;;;;1.70;1.60;;;;;;;2.33;98.78;101562.25;5095042;28;20444;-68
2021/03/17 07:00:33;;;;;;;0.40;0.30;;;;;;;2.34;99.50;101565.75;5094965;28;20482;-70
2021/03/17 07:03:02;;;;;;;0.80;0.43;;;;;;;2.46;99.70;101567.47;5094796;28;20986;-66
2021/03/17 07:05:35;;;;;;;0.50;0.50;;;;;;;2.56;99.59;101563.44;5094853;28;20478;-68
2021/03/17 07:08:03;;;;;;;15.53;1.50;;;;;;;2.58;99.38;101564.88;5094972;28;20447;-67
2021/03/17 07:10:32;;;;;;;8.30;1.27;;;;;;;2.56;98.24;101563.44;5094833;28;20440;-68
2021/03/17 07:12:59;;;;;;;0.50;0.37;;;;;;;2.58;98.80;101572.09;5094407;28;20456;-68
2021/03/17 07:15:25;;;;;;;3.60;0.93;;;;;;;2.64;97.97;101572.00;5094548;28;20456;-67
2021/03/17 07:17:53;;;;;;;0.60;0.60;;;;;;;2.69;98.07;101572.13;5094874;28;20439;-68
2021/03/17 07:20:37;;;;;;;1.23;1.23;;;;;;;2.68;97.56;101575.84;5094766;28;20443;-68
2021/03/17 07:23:23;;;;;;;1.13;0.97;;;;;;;2.25;99.45;101573.25;5094230;28;20972;-69
2021/03/17 07:26:20;;;;;;;0.40;0.30;;;;;;;2.33;98.97;101572.13;5094447;28;20469;-68
2021/03/17 07:29:12;;;;;;;0.83;0.40;;;;;;;2.16;100.00;101575.38;5094438;28;20502;-69
2021/03/17 07:31:42;;;;;;;0.50;0.40;;;;;;;2.12;100.00;101570.69;5094373;28;20431;-69
2021/03/17 07:34:19;;;;;;;0.40;0.30;;;;;;;2.33;100.00;101580.97;5094208;28;20464;-69
2021/03/17 07:36:49;;;;;;;2.27;0.90;;;;;;;2.58;99.36;101572.91;5093854;28;20929;-69
2021/03/17 07:39:18;;;;;;;0.40;0.40;;;;;;;2.84;98.28;101573.63;5094108;28;20443;-68
2021/03/17 07:41:45;;;;;;;0.40;0.30;;;;;;;2.86;97.96;101575.03;5094060;28;20823;-69
2021/03/17 07:44:12;;;;;;;0.40;0.30;;;;;;;3.06;97.45;101574.78;5094066;28;20484;-68
2021/03/17 07:46:40;;;;;;;0.40;0.30;;;;;;;3.09;97.31;101578.84;5094121;28;20452;-69
2021/03/17 07:49:08;;;;;;;0.93;0.87;;;;;;;3.26;96.96;101577.16;5094111;28;20465;-68
2021/03/17 07:51:39;;;;;;;0.87;0.87;;;;;;;3.25;96.56;101578.22;5094101;28;20440;-69
2021/03/17 07:54:08;;;;;;;1.07;0.40;;;;;;;3.44;96.69;101587.00;5093747;28;20929;-69
2021/03/17 07:56:34;;;;;;;0.63;0.50;;;;;;;3.65;96.17;101586.47;5093758;28;20949;-69
2021/03/17 07:59:00;;;;;;;0.87;0.73;;;;;;;3.79;95.43;101585.22;5093947;28;20444;-69
2021/03/17 08:01:27;;;;;;;0.60;0.60;;;;;;;3.35;95.61;101599.09;5093948;28;20429;-69
2021/03/17 08:03:53;;;;;;;1.27;0.80;;;;;;;3.58;95.82;101599.16;5093363;28;20480;-69
2021/03/17 08:06:21;;;;;;;3.03;0.50;;;;;;;3.69;94.97;101601.03;5093901;28;20440;-68
2021/03/17 08:08:48;;;;;;;0.73;0.73;;;;;;;3.77;94.68;101603.41;5093799;28;20455;-67
2021/03/17 08:11:17;;;;;;;1.10;0.97;;;;;;;3.84;94.60;101605.16;5093550;28;20555;-68
2021/03/17 08:13:45;;;;;;;2.30;2.00;;;;;;;3.96;93.72;101611.34;5093784;28;20455;-68
2021/03/17 08:16:13;;;;;;;0.50;0.40;;;;;;;3.85;92.70;101614.81;5093602;28;20520;-70
2021/03/17 08:18:44;;;;;;;0.60;0.60;;;;;;;3.84;93.33;101613.19;5093330;28;20441;-69
2021/03/17 08:21:10;;;;;;;7.13;1.27;;;;;;;3.99;92.95;101608.22;5093701;28;20508;-69
2021/03/17 08:23:41;;;;;;;0.50;0.50;;;;;;;3.92;92.88;101616.34;5093526;28;20583;-70
2021/03/17 08:26:09;;;;;;;5.33;2.07;;;;;;;3.93;92.59;101617.97;5093553;28;20468;-69
2021/03/17 08:28:51;;;;;;;2.30;1.03;;;;;;;3.99;92.91;101617.06;5093474;28;20440;-68
2021/03/17 08:31:53;;;;;;;0.50;0.40;;;;;;;4.03;92.85;101622.78;5093565;28;20448;-68
2021/03/17 08:34:27;;;;;;;4.13;1.50;;;;;;;4.07;92.44;101628.47;5093055;28;20520;-69
2021/03/17 08:36:55;;;;;;;8.97;1.07;;;;;;;4.11;92.88;101627.78;5093925;28;20895;-69
2021/03/17 08:39:44;;;;;;;1.03;0.83;;;;;;;3.95;92.73;101621.25;5093437;28;20452;-68
2021/03/17 08:42:12;;;;;;;1.57;0.50;;;;;;;3.97;92.61;101626.38;5093442;28;20448;-68
2021/03/17 08:44:47;;;;;;;1.37;1.27;;;;;;;3.91;92.90;101629.97;5093267;28;20493;-69
2021/03/17 08:47:17;;;;;;;0.60;0.50;;;;;;;3.88;93.54;101635.81;5093416;28;20856;-69
2021/03/17 08:49:44;;;;;;;0.40;0.30;;;;;;;3.93;92.95;101635.91;5093374;28;20527;-69
2021/03/17 08:52:12;;;;;;;1.33;0.50;;;;;;;3.85;93.11;101637.09;5093350;28;20467;-70
2021/03/17 08:54:45;;;;;;;0.40;0.30;;;;;;;3.93;93.52;101635.91;5092852;28;20808;-71
2021/03/17 08:57:12;;;;;;;0.77;0.77;;;;;;;4.10;93.49;101644.91;5093354;28;20501;-68
2021/03/17 08:59:39;;;;;;;0.60;0.60;;;;;;;4.13;93.29;101649.81;5093426;28;20441;-70
2021/03/17 09:02:17;;;;;;;1.43;1.17;;;;;;;4.00;93.72;101650.03;5093244;28;20444;-70
2021/03/17 09:04:43;;;;;;;2.40;1.60;;;;;;;3.80;93.32;101651.16;5093061;28;20539;-71
2021/03/17 09:07:10;;;;;;;0.50;0.37;;;;;;;3.83;93.98;101655.25;5093303;28;20856;-67
2021/03/17 09:09:46;;;;;;;0.90;0.80;;;;;;;3.95;94.32;101656.09;5092923;28;20443;-69
2021/03/17 09:12:12;;;;;;;1.03;0.97;;;;;;;4.18;93.57;101663.34;5092823;28;20957;-69
2021/03/17 09:14:39;;;;;;;0.40;0.30;;;;;;;4.01;92.98;101649.00;5092969;28;20456;-69
2021/03/17 09:17:26;;;;;;;4.93;2.10;;;;;;;4.00;93.45;101650.84;5095631;28;20440;-66
2021/03/17 09:20:24;;;;;;;0.80;0.60;;;;;;;4.16;93.15;101649.38;5096715;28;21000;-68
2021/03/17 09:23:04;;;;;;;1.60;1.53;;;;;;;4.37;92.34;101655.19;5096898;28;20447;-68
2021/03/17 09:25:32;;;;;;;1.43;1.23;;;;;;;4.54;92.16;101659.63;5096832;28;20492;-68
2021/03/17 09:28:02;;;;;;;0.50;0.50;;;;;;;4.58;90.76;101665.34;5096819;28;20463;-67
2021/03/17 09:30:30;;;;;;;3.33;0.77;;;;;;;4.39;90.88;101667.34;5096855;28;20444;-69
2021/03/17 09:33:13;;;;;;;1.80;1.10;;;;;;;4.34;91.39;101666.38;5096914;28;20522;-68
2021/03/17 09:35:39;;;;;;;0.97;0.43;;;;;;;4.35;91.86;101663.50;5096662;28;20467;-69
2021/03/17 09:38:09;;;;;;;1.00;0.70;;;;;;;4.35;92.08;101657.31;5096376;28;20442;-67
2021/03/17 09:40:43;;;;;;;2.23;2.03;;;;;;;4.34;91.68;101671.75;5096150;28;20432;-67
2021/03/17 09:43:34;;;;;;;0.40;0.30;;;;;;;4.45;91.21;101669.06;5096551;28;20425;-68
2021/03/17 09:46:01;;;;;;;1.00;0.40;;;;;;;4.76;90.69;101667.06;5096448;28;20475;-71
2021/03/17 09:48:28;;;;;;;0.50;0.43;;;;;;;4.75;89.65;101677.00;5096455;28;20531;-70
2021/03/17 09:50:56;;;;;;;3.73;3.43;;;;;;;5.16;88.92;101667.13;5096271;28;20557;-69
2021/03/17 09:53:23;;;;;;;2.47;0.83;;;;;;;5.42;87.99;101667.63;5096489;28;20443;-69
2021/03/17 09:55:49;;;;;;;3.43;1.97;;;;;;;5.36;86.92;101682.84;5096219;28;20452;-69
2021/03/17 09:58:15;;;;;;;1.27;1.17;;;;;;;5.21;87.42;101671.78;5095962;28;20941;-68
2021/03/17 10:00:41;;;;;;;1.90;0.70;;;;;;;5.41;87.15;101671.38;5096130;28;20478;-68
2021/03/17 10:03:12;;;;;;;4.60;2.23;;;;;;;5.43;86.66;101669.25;5096082;28;20509;-66
2021/03/17 10:05:39;;;;;;;1.73;1.07;;;;;;;5.43;87.38;101670.06;5095994;28;20492;-67
2021/03/17 10:08:05;;;;;;;1.43;0.87;;;;;;;5.45;86.45;101675.22;5096223;28;20790;-67
2021/03/17 10:10:32;;;;;;;2.10;1.37;;;;;;;5.31;87.23;101678.19;5095816;28;20441;-69
2021/03/17 10:12:58;;;;;;;2.50;2.10;;;;;;;5.49;87.05;101674.50;5095694;28;20453;-69
2021/03/17 10:15:24;;;;;;;0.97;0.60;;;;;;;5.85;86.29;101675.13;5095884;28;20460;-68
2021/03/17 10:17:53;;;;;;;2.70;2.17;;;;;;;6.22;84.61;101678.19;5095975;28;20527;-68
2021/03/17 10:20:20;;;;;;;1.80;1.70;;;;;;;6.46;83.46;101680.69;5095687;28;20491;-67
2021/03/17 10:22:49;;;;;;;1.63;1.53;;;;;;;6.41;83.17;101680.63;5095800;28;20451;-69
2021/03/17 10:25:18;;;;;;;0.50;0.50;;;;;;;6.31;82.54;101676.72;5095540;28;20489;-68
2021/03/17 10:27:49;;;;;;;0.50;0.40;;;;;;;5.91;83.09;101681.41;5095166;28;20794;-66
2021/03/17 10:30:17;;;;;;;0.50;0.40;;;;;;;5.96;83.84;101685.03;5095645;28;20417;-67
2021/03/17 10:32:48;;;;;;;1.03;1.03;;;;;;;5.94;84.04;101680.97;5095561;28;20440;-67
2021/03/17 10:35:15;;;;;;;1.00;0.40;;;;;;;6.05;84.00;101688.13;5095509;28;20460;-66
2021/03/17 10:37:42;;;;;;;5.57;0.50;;;;;;;6.08;83.70;101674.19;5095071;28;20799;-65
2021/03/17 10:40:12;;;;;;;0.60;0.47;;;;;;;6.16;83.51;101681.06;5112225;22;20504;-63
2021/03/17 10:42:44;;;;;;;0.83;0.80;;;;;;;5.68;84.81;101676.97;5075229;28;20426;-63
2021/03/17 10:45:13;;;;;;;3.23;1.17;;;;;;;5.43;85.76;101680.81;5074954;28;20515;-62
2021/03/17 10:47:41;;;;;;;3.23;0.97;;;;;;;5.42;86.52;101681.88;5074596;28;20855;-63
2021/03/17 10:50:09;;;;;;;2.20;0.50;;;;;;;5.23;86.51;101686.59;5074898;28;20472;-63
2021/03/17 10:52:37;;;;;;;1.73;0.90;;;;;;;5.20;87.22;101681.69;5074949;28;20442;-63
2021/03/17 10:55:10;;;;;;;0.40;0.30;;;;;;;5.31;87.49;101686.25;5074807;28;20499;-62
2021/03/17 10:57:36;;;;;;;0.40;0.30;;;;;;;5.41;87.46;101687.50;5074702;28;20449;-62
2021/03/17 11:00:15;;;;;;;0.50;0.40;;;;;;;5.50;87.06;101683.38;5074399;28;20994;-62
2021/03/17 11:02:42;;;;;;;0.40;0.30;;;;;;;5.47;86.97;101676.59;5073928;28;20441;-63
2021/03/17 11:05:14;;;;;;;0.97;0.97;;;;;;;5.46;87.10;101679.53;5074539;28;20546;-63
2021/03/17 11:07:51;;;;;;;0.93;0.93;;;;;;;5.54;87.15;101679.13;5074652;28;20437;-61
2021/03/17 11:10:50;;;;;;;2.00;1.00;;;;;;;5.53;87.20;101674.81;5074361;28;20464;-63
2021/03/17 11:13:33;;;;;;;1.00;0.90;;;;;;;5.77;86.85;101679.03;5072571;28;20457;-61
2021/03/17 11:16:02;;;;;;;0.40;0.30;;;;;;;6.00;86.67;101679.97;5074511;28;20871;-63
2021/03/17 11:18:30;;;;;;;0.60;0.60;;;;;;;5.95;86.36;101675.34;5074571;28;20445;-63
2021/03/17 11:20:58;;;;;;;0.70;0.50;;;;;;;6.08;85.89;101687.66;5074255;28;20822;-61
2021/03/17 11:23:25;;;;;;;0.80;0.80;;;;;;;6.14;84.70;101683.97;5074574;28;20444;-62
2021/03/17 11:25:55;;;;;;;0.83;0.77;;;;;;;6.15;85.11;101690.16;5073937;28;20488;-62
2021/03/17 11:28:23;;;;;;;0.83;0.70;;;;;;;6.29;85.17;101689.63;5074537;28;20449;-62
2021/03/17 11:30:52;;;;;;;0.50;0.50;;;;;;;6.47;84.60;101687.75;5074200;28;20519;-62
2021/03/17 11:33:19;;;;;;;0.73;0.40;;;;;;;6.37;83.57;101691.06;5074323;28;20532;-62
2021/03/17 11:35:46;;;;;;;0.50;0.40;;;;;;;5.86;85.02;101689.38;5073805;28;20511;-62
2021/03/17 11:38:13;;;;;;;0.93;0.40;;;;;;;5.70;86.35;101685.59;5073898;28;20495;-61
2021/03/17 11:40:39;;;;;;;2.97;0.70;;;;;;;5.85;86.01;101687.75;5071770;28;21001;-59
2021/03/17 11:43:09;;;;;;;0.87;0.40;;;;;;;6.02;85.32;101685.91;5069261;28;20441;-61